Time;durP1;ratioP1;P1;durP2;ratioP2;P2;SDS_P1;SDS_P2;PMS_P1;PMS_P2;Temp;Humidity;BMP_temperature;BMP_pressure;BME280_temperature;BME280_humidity;BME280_pressure;Samples;Min_cycle;Max_cycle;Signal;HPM_P1;HPM_P2
2022/11/30 00:00:32;;;;;;;0.00;0.00;;;;;;;16.72;61.27;102434.38;2080153;28;20064;-73
2022/11/30 00:01:33;;;;;;;0.00;0.00;;;;;;;16.70;61.32;102442.13;2078919;28;20057;-73
2022/11/30 00:02:36;;;;;;;0.00;0.00;;;;;;;16.70;61.48;102437.44;2086593;28;20045;-72
2022/11/30 00:03:38;;;;;;;0.00;0.00;;;;;;;16.70;61.43;102447.56;2078316;28;20153;-73
2022/11/30 00:04:41;;;;;;;0.00;0.00;;;;;;;16.70;61.25;102447.56;2072061;28;20060;-73
2022/11/30 00:05:43;;;;;;;0.00;0.00;;;;;;;16.70;61.45;102440.16;2071682;28;20057;-72
2022/11/30 00:06:45;;;;;;;0.00;0.00;;;;;;;16.68;61.31;102439.69;2079704;28;20555;-73
2022/11/30 00:07:47;;;;;;;0.00;0.00;;;;;;;16.69;61.44;102446.75;2081682;28;20049;-72
2022/11/30 00:08:52;;;;;;;0.00;0.00;;;;;;;16.70;61.53;102447.56;2079744;28;20743;-73
2022/11/30 00:09:54;;;;;;;0.00;0.00;;;;;;;16.69;61.12;102445.97;2077384;28;20575;-73
2022/11/30 00:10:58;;;;;;;0.00;0.00;;;;;;;16.70;61.27;102447.56;2073302;28;20165;-73
2022/11/30 00:12:00;;;;;;;0.00;0.00;;;;;;;16.69;61.38;102451.41;2072319;28;20178;-73
2022/11/30 00:13:02;;;;;;;0.00;0.00;;;;;;;16.69;61.35;102454.16;2079104;28;20045;-73
2022/11/30 00:14:04;;;;;;;0.00;0.00;;;;;;;16.69;61.39;102451.41;2080126;28;20061;-72
2022/11/30 00:15:08;;;;;;;0.00;0.00;;;;;;;16.69;61.33;102454.94;2081968;28;20509;-73
2022/11/30 00:16:10;;;;;;;0.00;0.00;;;;;;;16.68;61.69;102458.00;2079742;28;20593;-72
2022/11/30 00:17:13;;;;;;;0.00;0.00;;;;;;;16.68;61.30;102458.00;2077626;28;20058;-73
2022/11/30 00:18:16;;;;;;;0.00;0.00;;;;;;;16.68;61.48;102464.25;2079486;28;20053;-73
2022/11/30 00:19:19;;;;;;;0.00;0.00;;;;;;;16.68;61.23;102461.53;2078827;28;20072;-73
2022/11/30 00:20:21;;;;;;;0.00;0.00;;;;;;;16.68;61.38;102461.53;2078496;28;20608;-73
2022/11/30 00:21:24;;;;;;;0.00;0.00;;;;;;;16.68;61.38;102449.84;2072828;28;20061;-73
2022/11/30 00:22:25;;;;;;;0.00;0.00;;;;;;;16.68;61.44;102464.25;2072571;28;20050;-73
2022/11/30 00:23:32;;;;;;;0.00;0.00;;;;;;;16.68;61.15;102449.84;2076991;28;20054;-73
2022/11/30 00:24:33;;;;;;;0.00;0.00;;;;;;;16.67;61.44;102462.66;2085441;28;20084;-73
2022/11/30 00:25:37;;;;;;;0.00;0.00;;;;;;;16.68;61.30;102458.00;2079665;28;20056;-73
2022/11/30 00:26:40;;;;;;;0.00;0.00;;;;;;;16.68;61.39;102460.75;2078035;28;21060;-73
2022/11/30 00:27:42;;;;;;;0.00;0.00;;;;;;;16.67;61.35;102462.66;2063255;28;20536;-73
2022/11/30 00:28:45;;;;;;;0.00;0.00;;;;;;;16.67;61.32;102467.31;2072388;28;20053;-73
2022/11/30 00:29:48;;;;;;;0.00;0.00;;;;;;;16.67;61.45;102470.03;2082418;28;20092;-72
2022/11/30 00:30:56;;;;;;;0.00;0.00;;;;;;;16.65;61.25;102470.38;2079804;28;20049;-73
2022/11/30 00:31:59;;;;;;;0.00;0.00;;;;;;;16.66;61.48;102468.47;2078661;28;20115;-72
2022/11/30 00:33:01;;;;;;;0.00;0.00;;;;;;;16.66;61.24;102473.91;2079073;28;20065;-72
2022/11/30 00:34:03;;;;;;;0.00;0.00;;;;;;;16.67;61.09;102470.03;2080554;28;20510;-72
2022/11/30 00:35:05;;;;;;;0.00;0.00;;;;;;;16.67;61.36;102470.03;2078199;28;20088;-72
2022/11/30 00:36:12;;;;;;;0.00;0.00;;;;;;;16.67;61.36;102475.50;2079105;28;20053;-72
2022/11/30 00:37:13;;;;;;;0.00;0.00;;;;;;;16.66;61.59;102473.91;2080394;28;20064;-72
2022/11/30 00:38:17;;;;;;;0.00;0.00;;;;;;;16.65;61.34;102469.63;2080140;28;20134;-72
2022/11/30 00:39:19;;;;;;;0.00;0.00;;;;;;;16.65;61.53;102466.88;2081757;28;20065;-72
2022/11/30 00:40:22;;;;;;;0.00;0.00;;;;;;;16.66;61.58;102471.19;2078006;28;20050;-71
2022/11/30 00:41:23;;;;;;;0.00;0.00;;;;;;;16.66;61.40;102473.91;2076911;28;20085;-72
2022/11/30 00:42:27;;;;;;;0.00;0.00;;;;;;;16.66;61.25;102468.47;2077733;28;21073;-72
2022/11/30 00:43:29;;;;;;;0.00;0.00;;;;;;;16.65;61.41;102477.78;2077882;28;20054;-73
2022/11/30 00:44:32;;;;;;;0.00;0.00;;;;;;;16.65;61.37;102475.06;2080698;28;20063;-73
2022/11/30 00:45:34;;;;;;;0.00;0.00;;;;;;;16.65;61.36;102472.34;2078997;28;20133;-73
2022/11/30 00:46:36;;;;;;;0.00;0.00;;;;;;;16.65;61.43;102469.63;2077575;28;20103;-73
2022/11/30 00:47:38;;;;;;;0.00;0.00;;;;;;;16.65;61.50;102469.63;2077939;28;20153;-73
2022/11/30 00:48:41;;;;;;;0.00;0.00;;;;;;;16.66;61.44;102471.19;2080819;28;20092;-73
2022/11/30 00:49:43;;;;;;;0.00;0.00;;;;;;;16.65;61.37;102466.88;2081655;28;20061;-73
2022/11/30 00:50:47;;;;;;;0.00;0.00;;;;;;;16.65;61.55;102466.88;2079311;28;20093;-73
2022/11/30 00:51:50;;;;;;;0.00;0.00;;;;;;;16.64;61.48;102468.00;2078088;28;20061;-73
2022/11/30 00:52:52;;;;;;;0.00;0.00;;;;;;;16.64;61.37;102466.09;2078118;28;20498;-72
2022/11/30 00:53:54;;;;;;;0.00;0.00;;;;;;;16.64;61.47;102471.53;2080093;28;20057;-72
2022/11/30 00:54:56;;;;;;;0.00;0.00;;;;;;;16.64;61.45;102470.72;2080128;28;20051;-73
2022/11/30 00:55:59;;;;;;;0.00;0.00;;;;;;;16.64;61.54;102476.19;2078502;28;20092;-73
2022/11/30 00:57:00;;;;;;;0.00;0.00;;;;;;;16.64;61.35;102476.19;2075951;28;20141;-73
2022/11/30 00:58:06;;;;;;;0.00;0.00;;;;;;;16.65;61.24;102478.56;2077458;28;20053;-72
2022/11/30 00:59:08;;;;;;;0.00;0.00;;;;;;;16.63;61.44;102472.69;2079905;28;20053;-73
2022/11/30 01:00:11;;;;;;;0.00;0.00;;;;;;;16.65;61.53;102472.34;2078442;28;20049;-73
2022/11/30 01:01:13;;;;;;;0.00;0.00;;;;;;;16.62;61.51;102468.34;2079030;28;20041;-73
2022/11/30 01:02:16;;;;;;;0.00;0.00;;;;;;;16.64;61.40;102476.19;2079030;28;20124;-73
2022/11/30 01:03:18;;;;;;;0.00;0.00;;;;;;;16.63;61.57;102478.13;2080055;28;20061;-73
2022/11/30 01:04:21;;;;;;;0.00;0.00;;;;;;;16.63;61.55;102478.13;2079922;28;20064;-73
2022/11/30 01:05:22;;;;;;;0.00;0.00;;;;;;;16.63;61.44;102472.69;2076805;28;20543;-73
2022/11/30 01:06:25;;;;;;;0.00;0.00;;;;;;;16.63;61.50;102474.59;2076999;28;20100;-74
2022/11/30 01:07:27;;;;;;;0.00;0.00;;;;;;;16.63;61.37;102471.88;2078761;28;20111;-74
2022/11/30 01:08:29;;;;;;;0.00;0.00;;;;;;;16.63;61.80;102474.59;2078201;28;20088;-74
2022/11/30 01:09:31;;;;;;;0.00;0.00;;;;;;;16.62;61.48;102475.75;2070562;28;20081;-74
2022/11/30 01:10:35;;;;;;;0.00;0.00;;;;;;;16.63;61.27;102478.13;2069663;28;20541;-74
2022/11/30 01:11:37;;;;;;;0.00;0.00;;;;;;;16.62;61.59;102481.22;2072507;28;20057;-74
2022/11/30 01:12:40;;;;;;;0.00;0.00;;;;;;;16.62;61.42;102479.25;2081413;28;20103;-74
2022/11/30 01:13:43;;;;;;;0.00;0.00;;;;;;;16.62;61.61;102475.75;2080379;28;20057;-73
2022/11/30 01:14:46;;;;;;;0.00;0.00;;;;;;;16.63;61.51;102474.59;2077560;28;20052;-74
2022/11/30 01:15:48;;;;;;;0.00;0.00;;;;;;;16.62;61.28;102478.47;2070499;28;20080;-73
2022/11/30 01:16:51;;;;;;;0.00;0.00;;;;;;;16.61;61.39;102483.13;2077666;28;20476;-73
2022/11/30 01:17:58;;;;;;;0.00;0.00;;;;;;;16.62;61.51;102483.94;2079670;28;20060;-74
2022/11/30 01:19:01;;;;;;;0.00;0.00;;;;;;;16.63;61.42;102482.78;2078291;28;20045;-73
2022/11/30 01:20:03;;;;;;;0.00;0.00;;;;;;;16.61;61.47;102487.78;2076831;28;20532;-73
2022/11/30 01:21:08;;;;;;;0.00;0.00;;;;;;;16.63;61.41;102490.97;2078491;28;20057;-73
2022/11/30 01:22:10;;;;;;;0.00;0.00;;;;;;;16.62;61.50;102486.66;2064281;28;20500;-73
2022/11/30 01:23:12;;;;;;;0.00;0.00;;;;;;;16.62;61.43;102489.38;2055308;28;20047;-73
2022/11/30 01:24:14;;;;;;;0.00;0.00;;;;;;;16.62;61.33;102490.16;2072754;28;20057;-73
2022/11/30 01:25:17;;;;;;;0.00;0.00;;;;;;;16.61;61.37;102491.31;2076834;28;20132;-73
2022/11/30 01:26:19;;;;;;;0.00;0.00;;;;;;;16.62;61.46;102495.63;2076812;28;20053;-73
2022/11/30 01:27:22;;;;;;;0.00;0.00;;;;;;;16.62;61.45;102492.13;2078820;28;20536;-73
2022/11/30 01:28:24;;;;;;;0.00;0.00;;;;;;;16.62;61.50;102489.38;2063637;28;20062;-73
2022/11/30 01:29:28;;;;;;;0.00;0.00;;;;;;;16.62;61.30;102490.16;2061582;28;21279;-73
2022/11/30 01:30:30;;;;;;;0.00;0.00;;;;;;;16.61;61.48;102488.59;2072240;28;20058;-73
2022/11/30 01:31:35;;;;;;;0.00;0.00;;;;;;;16.61;61.43;102490.50;2077795;28;21065;-73
2022/11/30 01:32:42;;;;;;;0.00;0.00;;;;;;;16.60;61.16;102487.00;2078437;28;20056;-73
2022/11/30 01:33:48;;;;;;;0.00;0.00;;;;;;;16.60;61.34;102491.66;2080696;28;20056;-71
2022/11/30 01:34:50;;;;;;;0.00;0.00;;;;;;;16.60;61.44;102488.94;2077582;28;20077;-71
2022/11/30 01:36:00;;;;;;;0.00;0.00;;;;;;;16.59;61.35;102490.84;2077841;28;20096;-71
2022/11/30 01:37:03;;;;;;;0.00;0.00;;;;;;;16.58;61.34;102494.72;2076245;28;20484;-71
2022/11/30 01:38:05;;;;;;;0.00;0.00;;;;;;;16.59;61.42;102495.50;2079479;28;20061;-71
2022/11/30 01:39:09;;;;;;;0.00;0.00;;;;;;;16.60;61.38;102495.19;2080265;28;20046;-71
2022/11/30 01:40:11;;;;;;;0.00;0.00;;;;;;;16.60;61.50;102494.38;2070946;28;20053;-72
2022/11/30 01:41:17;;;;;;;0.00;0.00;;;;;;;16.60;61.45;102499.84;2071065;28;20053;-72
2022/11/30 01:42:19;;;;;;;0.00;0.00;;;;;;;16.60;61.43;102502.56;2077418;28;20045;-71
2022/11/30 01:43:21;;;;;;;0.00;0.00;;;;;;;16.60;61.54;102491.66;2067355;28;20056;-72
2022/11/30 01:44:50;;;;;;;0.00;0.00;;;;;;;16.49;61.44;102493.25;2069546;28;20050;-72
2022/11/30 01:45:53;;;;;;;0.00;0.00;;;;;;;16.55;61.60;102497.31;2077805;28;20045;-72
2022/11/30 01:46:59;;;;;;;0.00;0.00;;;;;;;16.57;61.50;102503.25;2087032;28;20245;-72
2022/11/30 01:48:02;;;;;;;0.00;0.00;;;;;;;16.56;61.90;102490.72;2077494;28;20062;-72
2022/11/30 01:49:14;;;;;;;0.00;0.00;;;;;;;16.56;61.55;102490.72;2078615;28;20552;-72
2022/11/30 01:50:21;;;;;;;0.00;0.00;;;;;;;16.56;61.59;102483.34;2080268;28;20046;-72
2022/11/30 01:51:25;;;;;;;0.00;0.00;;;;;;;16.57;61.64;102486.88;2077871;28;20056;-72
2022/11/30 01:52:33;;;;;;;0.00;0.00;;;;;;;16.56;61.68;102480.63;2079248;28;20057;-72
2022/11/30 01:53:35;;;;;;;0.00;0.00;;;;;;;16.56;61.60;102479.81;2079054;28;20091;-73
2022/11/30 01:54:42;;;;;;;0.00;0.00;;;;;;;16.58;61.42;102485.75;2078303;28;20068;-72
2022/11/30 01:55:48;;;;;;;0.00;0.00;;;;;;;16.57;61.33;102487.66;2077175;28;20052;-73
2022/11/30 01:56:54;;;;;;;0.00;0.00;;;;;;;16.56;61.39;102480.63;2075707;28;20076;-73
2022/11/30 01:58:01;;;;;;;0.00;0.00;;;;;;;16.57;61.57;102475.97;2068513;28;20082;-73
2022/11/30 01:59:03;;;;;;;0.00;0.00;;;;;;;16.56;61.65;102486.09;2078622;28;20432;-73
2022/11/30 02:00:11;;;;;;;0.00;0.00;;;;;;;16.56;61.37;102472.44;2077915;28;20132;-73
2022/11/30 02:01:19;;;;;;;0.00;0.00;;;;;;;16.55;61.67;102472.78;2071938;28;20050;-73
2022/11/30 02:02:46;;;;;;;0.00;0.00;;;;;;;16.47;61.52;102479.94;2079775;28;20053;-73
2022/11/30 02:03:54;;;;;;;0.00;0.00;;;;;;;16.53;61.69;102475.06;2094705;28;20751;-73
2022/11/30 02:04:57;;;;;;;0.00;0.00;;;;;;;16.53;61.64;102480.50;2085347;28;20089;-73
2022/11/30 02:05:59;;;;;;;0.00;0.00;;;;;;;16.54;61.48;102480.16;2085316;28;20041;-73
2022/11/30 02:07:04;;;;;;;0.00;0.00;;;;;;;16.55;61.55;102479.03;2085720;28;20068;-73
2022/11/30 02:08:08;;;;;;;0.00;0.00;;;;;;;16.56;61.53;102468.91;2085304;28;20052;-73
2022/11/30 02:09:13;;;;;;;0.00;0.00;;;;;;;16.57;61.67;102465.06;2095467;28;20120;-73
2022/11/30 02:10:17;;;;;;;0.00;0.00;;;;;;;16.55;61.66;102465.41;2087754;28;20457;-72
2022/11/30 02:11:21;;;;;;;0.00;0.00;;;;;;;16.55;61.57;102470.06;2074630;28;20062;-73
2022/11/30 02:12:33;;;;;;;0.00;0.00;;;;;;;16.55;61.25;102472.78;2087858;28;20480;-73
2022/11/30 02:13:49;;;;;;;0.00;0.00;;;;;;;16.50;61.53;102468.38;2087021;28;20055;-73
2022/11/30 02:14:57;;;;;;;0.00;0.00;;;;;;;16.52;61.68;102468.81;2079637;28;20058;-73
2022/11/30 02:16:10;;;;;;;0.00;0.00;;;;;;;16.51;61.46;102474.63;2079017;28;20061;-73
2022/11/30 02:17:21;;;;;;;0.00;0.00;;;;;;;16.52;61.44;102473.47;2086678;28;20049;-73
2022/11/30 02:18:27;;;;;;;;;;;;;;;16.32;62.06;102469.66;2078340;28;20604;-72
2022/11/30 02:20:19;;;;;;;0.00;0.00;;;;;;;16.34;62.06;102470.13;2079823;28;20332;-73
2022/11/30 02:21:27;;;;;;;0.00;0.00;;;;;;;16.42;61.76;102474.69;2067950;28;20156;-73
2022/11/30 02:22:43;;;;;;;0.00;0.00;;;;;;;16.43;61.75;102460.72;2067948;28;20081;-72
2022/11/30 02:24:07;;;;;;;0.00;0.00;;;;;;;16.42;61.65;102470.03;2087755;28;20061;-72
2022/11/30 02:25:19;;;;;;;0.00;0.00;;;;;;;16.43;61.79;102477.06;2094400;28;20048;-72
2022/11/30 02:26:39;;;;;;;0.00;0.00;;;;;;;16.42;61.87;102472.75;2087520;28;20057;-72
2022/11/30 02:27:52;;;;;;;;;;;;;;;16.25;62.00;102470.22;2082357;28;20652;-73
2022/11/30 02:29:10;;;;;;;0.00;0.00;;;;;;;16.32;61.89;102470.47;2076548;28;19922;-72
2022/11/30 02:30:15;;;;;;;0.00;0.00;;;;;;;16.39;61.88;102476.16;2083889;28;20571;-73
2022/11/30 02:31:22;;;;;;;0.00;0.00;;;;;;;16.42;61.77;102474.69;2079487;28;20606;-73
2022/11/30 02:32:29;;;;;;;0.00;0.00;;;;;;;16.43;61.80;102487.97;2088587;28;20075;-73
2022/11/30 02:33:34;;;;;;;0.00;0.00;;;;;;;16.43;61.52;102471.63;2091661;28;20090;-72
2022/11/30 02:34:38;;;;;;;0.00;0.00;;;;;;;16.44;61.72;102475.94;2094109;28;20059;-72
2022/11/30 02:35:45;;;;;;;0.00;0.00;;;;;;;16.46;61.80;102474.84;2094343;28;20508;-72
2022/11/30 02:36:58;;;;;;;0.00;0.00;;;;;;;16.45;61.77;102482.22;2085822;28;20057;-72
2022/11/30 02:38:01;;;;;;;0.00;0.00;;;;;;;16.44;61.88;102475.94;2078249;28;20056;-72
2022/11/30 02:39:04;;;;;;;0.00;0.00;;;;;;;16.47;61.73;102476.41;2085904;28;20048;-72
2022/11/30 02:40:08;;;;;;;0.00;0.00;;;;;;;16.47;61.82;102479.16;2095553;28;20836;-72
2022/11/30 02:41:11;;;;;;;0.00;0.00;;;;;;;16.47;61.87;102477.22;2092702;28;20053;-72
2022/11/30 02:42:13;;;;;;;0.00;0.00;;;;;;;16.47;61.82;102479.94;2084730;28;20163;-73
2022/11/30 02:43:19;;;;;;;0.00;0.00;;;;;;;16.48;61.86;102484.25;2077760;28;20551;-72
2022/11/30 02:44:23;;;;;;;0.00;0.00;;;;;;;16.46;61.61;102478.34;2083597;28;20159;-73
2022/11/30 02:45:31;;;;;;;0.00;0.00;;;;;;;16.48;61.70;102481.53;2095320;28;20064;-72
2022/11/30 02:46:44;;;;;;;0.00;0.00;;;;;;;16.45;61.85;102479.47;2086281;28;20086;-72
2022/11/30 02:47:55;;;;;;;0.00;0.00;;;;;;;16.44;61.81;102484.13;2088294;28;20056;-72
2022/11/30 02:49:04;;;;;;;0.00;0.00;;;;;;;16.46;61.40;102480.28;2087980;28;20052;-72
2022/11/30 02:50:12;;;;;;;0.00;0.00;;;;;;;16.47;61.88;102481.88;2080351;28;20062;-73
2022/11/30 02:51:19;;;;;;;0.00;0.00;;;;;;;16.47;61.68;102481.88;2086118;28;20049;-73
2022/11/30 02:52:26;;;;;;;0.00;0.00;;;;;;;16.47;61.79;102474.50;2086873;28;20096;-72
2022/11/30 02:53:28;;;;;;;0.00;0.00;;;;;;;16.46;61.89;102483.78;2089148;28;20049;-72
2022/11/30 02:54:32;;;;;;;0.00;0.00;;;;;;;16.47;61.62;102488.13;2092501;28;20052;-73
2022/11/30 02:55:33;;;;;;;0.00;0.00;;;;;;;16.47;61.70;102481.88;2085666;28;20045;-72
2022/11/30 02:56:36;;;;;;;0.00;0.00;;;;;;;16.48;61.71;102483.44;2078618;28;20057;-72
2022/11/30 02:57:38;;;;;;;0.00;0.00;;;;;;;16.47;61.79;102482.69;2077686;28;20072;-72
2022/11/30 02:58:41;;;;;;;0.00;0.00;;;;;;;16.48;61.84;102480.72;2085521;28;20056;-72
2022/11/30 02:59:44;;;;;;;0.00;0.00;;;;;;;16.49;61.71;102485.06;2078823;28;21241;-73
2022/11/30 03:00:47;;;;;;;0.00;0.00;;;;;;;16.48;61.83;102478.81;2078614;28;20072;-72
2022/11/30 03:01:49;;;;;;;0.00;0.00;;;;;;;16.47;61.79;102479.94;2093430;28;20057;-73
2022/11/30 03:02:51;;;;;;;0.00;0.00;;;;;;;16.48;61.63;102481.53;2094052;28;20122;-72
2022/11/30 03:03:53;;;;;;;0.00;0.00;;;;;;;16.49;61.81;102485.06;2096100;28;20076;-72
2022/11/30 03:04:56;;;;;;;0.00;0.00;;;;;;;16.48;61.88;102484.25;2087089;28;20138;-72
2022/11/30 03:05:57;;;;;;;0.00;0.00;;;;;;;16.48;61.66;102481.53;2084758;28;20060;-71
2022/11/30 03:07:00;;;;;;;0.00;0.00;;;;;;;16.49;61.65;102476.88;2077470;28;20805;-72
2022/11/30 03:08:02;;;;;;;0.00;0.00;;;;;;;16.49;61.65;102485.06;2078038;28;20057;-72
2022/11/30 03:09:05;;;;;;;0.00;0.00;;;;;;;16.48;61.58;102481.53;2085706;28;20064;-72
2022/11/30 03:10:08;;;;;;;0.00;0.00;;;;;;;16.49;61.69;102479.59;2085942;28;20075;-72
2022/11/30 03:11:10;;;;;;;0.00;0.00;;;;;;;16.48;61.71;102483.44;2085656;28;20131;-72
2022/11/30 03:12:12;;;;;;;0.00;0.00;;;;;;;16.49;61.70;102482.34;2082814;28;20523;-72
2022/11/30 03:13:15;;;;;;;0.00;0.00;;;;;;;16.49;61.45;102482.34;2075979;28;20056;-73
2022/11/30 03:14:17;;;;;;;0.00;0.00;;;;;;;16.50;61.76;102492.09;2086214;28;20064;-72
2022/11/30 03:15:21;;;;;;;0.00;0.00;;;;;;;16.50;61.65;102483.91;2095285;28;20063;-72
2022/11/30 03:16:23;;;;;;;0.00;0.00;;;;;;;16.48;61.66;102484.25;2084586;28;20048;-72
2022/11/30 03:17:26;;;;;;;0.00;0.00;;;;;;;16.49;61.59;102474.94;2085810;28;20064;-72
2022/11/30 03:18:27;;;;;;;0.00;0.00;;;;;;;16.49;61.64;102476.88;2085722;28;20052;-72
2022/11/30 03:19:30;;;;;;;0.00;0.00;;;;;;;16.50;61.50;102481.19;2088494;28;20081;-72
2022/11/30 03:20:32;;;;;;;0.00;0.00;;;;;;;16.50;61.64;102478.47;2085003;28;20143;-73
2022/11/30 03:21:35;;;;;;;0.00;0.00;;;;;;;16.49;61.55;102482.34;2077416;28;20056;-72
2022/11/30 03:22:36;;;;;;;0.00;0.00;;;;;;;16.49;61.59;102480.38;2075728;28;20532;-73
2022/11/30 03:23:40;;;;;;;0.00;0.00;;;;;;;16.50;61.61;102483.91;2078959;28;20083;-73
2022/11/30 03:24:42;;;;;;;0.00;0.00;;;;;;;16.49;61.66;102480.38;2087420;28;20061;-73
2022/11/30 03:25:44;;;;;;;0.00;0.00;;;;;;;16.50;61.46;102489.38;2093746;28;20055;-73
2022/11/30 03:26:46;;;;;;;0.00;0.00;;;;;;;16.49;61.62;102485.84;2092391;28;20049;-73
2022/11/30 03:27:49;;;;;;;0.00;0.00;;;;;;;16.50;61.71;102489.38;2094683;28;20580;-73
2022/11/30 03:28:50;;;;;;;0.00;0.00;;;;;;;16.49;61.54;102485.06;2096129;28;20531;-73
2022/11/30 03:29:53;;;;;;;0.00;0.00;;;;;;;16.49;61.70;102485.06;2084834;28;20041;-73
2022/11/30 03:30:56;;;;;;;0.00;0.00;;;;;;;16.51;61.63;102490.97;2079265;28;20463;-73
2022/11/30 03:31:59;;;;;;;0.00;0.00;;;;;;;16.49;61.65;102485.06;2083920;28;20107;-73
2022/11/30 03:33:01;;;;;;;0.00;0.00;;;;;;;16.49;61.57;102491.28;2093868;28;20057;-73
2022/11/30 03:34:04;;;;;;;0.00;0.00;;;;;;;16.49;61.78;102488.56;2094121;28;20041;-73
2022/11/30 03:35:06;;;;;;;0.00;0.00;;;;;;;16.49;61.48;102485.84;2086569;28;20420;-73
2022/11/30 03:36:11;;;;;;;0.00;0.00;;;;;;;16.50;61.53;102489.38;2088439;28;20045;-73
2022/11/30 03:37:13;;;;;;;0.00;0.00;;;;;;;16.49;61.56;102490.50;2094359;28;20049;-73
2022/11/30 03:38:16;;;;;;;0.00;0.00;;;;;;;16.49;61.60;102487.78;2095227;28;20051;-72
2022/11/30 03:39:17;;;;;;;0.00;0.00;;;;;;;16.49;61.58;102490.50;2095333;28;20084;-73
2022/11/30 03:40:20;;;;;;;0.00;0.00;;;;;;;16.49;61.58;102485.06;2095163;28;20056;-73
2022/11/30 03:41:22;;;;;;;0.00;0.00;;;;;;;16.50;61.51;102483.91;2095305;28;20087;-73
2022/11/30 03:42:24;;;;;;;0.00;0.00;;;;;;;16.50;61.54;102486.63;2076204;28;20053;-72
2022/11/30 03:43:26;;;;;;;0.00;0.00;;;;;;;16.49;61.49;102487.78;2079835;28;20103;-72
2022/11/30 03:44:31;;;;;;;0.00;0.00;;;;;;;16.49;61.52;102485.06;2093335;28;20080;-72
2022/11/30 03:45:33;;;;;;;0.00;0.00;;;;;;;16.48;61.57;102483.44;2092710;28;20500;-72
2022/11/30 03:46:37;;;;;;;0.00;0.00;;;;;;;16.49;61.47;102488.56;2083373;28;20096;-73
2022/11/30 03:47:39;;;;;;;0.00;0.00;;;;;;;16.48;61.59;102483.44;2086424;28;20126;-73
2022/11/30 03:48:42;;;;;;;0.00;0.00;;;;;;;16.49;61.49;102485.06;2089097;28;20640;-73
2022/11/30 03:49:44;;;;;;;0.00;0.00;;;;;;;16.48;61.61;102480.72;2086775;28;20075;-72
2022/11/30 03:50:48;;;;;;;0.00;0.00;;;;;;;16.48;61.52;102486.97;2096311;28;20056;-73
2022/11/30 03:51:50;;;;;;;0.00;0.00;;;;;;;16.47;61.57;102487.31;2092195;28;20060;-73
2022/11/30 03:52:53;;;;;;;0.00;0.00;;;;;;;16.48;61.50;102483.44;2095941;28;20411;-73
2022/11/30 03:53:55;;;;;;;0.00;0.00;;;;;;;16.47;61.58;102487.31;2085168;28;20132;-73
2022/11/30 03:54:57;;;;;;;0.00;0.00;;;;;;;16.47;61.52;102490.84;2084701;28;20084;-73
2022/11/30 03:56:01;;;;;;;0.00;0.00;;;;;;;16.49;61.39;102495.97;2094253;28;20057;-73
2022/11/30 03:57:04;;;;;;;0.00;0.00;;;;;;;16.48;61.58;102488.91;2085534;28;20057;-73
2022/11/30 03:58:06;;;;;;;0.00;0.00;;;;;;;16.48;61.58;102494.34;2084458;28;20052;-73
2022/11/30 03:59:08;;;;;;;0.00;0.00;;;;;;;16.48;61.48;102488.91;2078022;28;20088;-72
2022/11/30 04:00:12;;;;;;;0.00;0.00;;;;;;;16.48;61.66;102494.34;2079103;28;20854;-72
2022/11/30 04:01:16;;;;;;;0.00;0.00;;;;;;;16.49;61.75;102490.50;2092908;28;20048;-72
2022/11/30 04:02:19;;;;;;;0.00;0.00;;;;;;;16.48;61.46;102486.19;2094411;28;20089;-72
2022/11/30 04:03:22;;;;;;;0.00;0.00;;;;;;;16.47;61.48;102488.13;2086400;28;20081;-72
2022/11/30 04:04:23;;;;;;;0.00;0.00;;;;;;;16.47;61.57;102490.84;2069796;28;20045;-72
2022/11/30 04:05:26;;;;;;;0.00;0.00;;;;;;;16.47;61.36;102492.78;2079877;28;20069;-72
2022/11/30 04:06:28;;;;;;;0.00;0.00;;;;;;;16.47;61.56;102490.06;2093931;28;20056;-73
2022/11/30 04:07:31;;;;;;;0.00;0.00;;;;;;;16.47;61.45;102498.22;2084951;28;20094;-72
2022/11/30 04:08:33;;;;;;;0.00;0.00;;;;;;;16.48;61.58;102497.09;2086328;28;20783;-73
2022/11/30 04:09:36;;;;;;;0.00;0.00;;;;;;;16.47;61.38;102503.69;2094721;28;20064;-73
2022/11/30 04:10:38;;;;;;;0.00;0.00;;;;;;;16.47;61.50;102500.97;2095813;28;20060;-73
2022/11/30 04:11:40;;;;;;;0.00;0.00;;;;;;;16.47;61.51;102501.75;2095789;28;20416;-72
2022/11/30 04:12:42;;;;;;;0.00;0.00;;;;;;;16.47;61.32;102511.88;2079379;28;20045;-72
2022/11/30 04:13:45;;;;;;;0.00;0.00;;;;;;;16.47;61.44;102509.94;2080126;28;20087;-72
2022/11/30 04:14:46;;;;;;;0.00;0.00;;;;;;;16.46;61.46;102508.34;2096921;28;20051;-72
2022/11/30 04:15:51;;;;;;;0.00;0.00;;;;;;;16.47;61.42;102506.41;2095878;28;20103;-72
2022/11/30 04:16:53;;;;;;;0.00;0.00;;;;;;;16.47;61.58;102514.59;2096598;28;20043;-73
2022/11/30 04:17:57;;;;;;;0.00;0.00;;;;;;;16.47;61.62;102509.13;2086036;28;20080;-73
2022/11/30 04:19:00;;;;;;;0.00;0.00;;;;;;;16.46;61.48;102505.59;2071780;28;20086;-73
2022/11/30 04:20:02;;;;;;;0.00;0.00;;;;;;;16.46;61.43;102502.09;2079473;28;20060;-73
2022/11/30 04:21:06;;;;;;;0.00;0.00;;;;;;;16.47;61.45;102507.22;2085593;28;20061;-73
2022/11/30 04:22:07;;;;;;;0.00;0.00;;;;;;;16.46;61.43;102505.59;2081101;28;20053;-73
2022/11/30 04:23:11;;;;;;;0.00;0.00;;;;;;;16.46;61.52;102505.59;2086740;28;20787;-72
2022/11/30 04:24:13;;;;;;;0.00;0.00;;;;;;;16.45;61.49;102501.28;2084333;28;20052;-73
2022/11/30 04:25:16;;;;;;;0.00;0.00;;;;;;;16.44;61.60;102505.94;2086409;28;20057;-72
2022/11/30 04:26:18;;;;;;;0.00;0.00;;;;;;;16.43;61.34;102501.59;2085959;28;20056;-73
2022/11/30 04:27:20;;;;;;;0.00;0.00;;;;;;;16.46;61.51;102507.56;2084793;28;20990;-72
2022/11/30 04:28:23;;;;;;;0.00;0.00;;;;;;;16.46;61.53;102513.00;2094591;28;20516;-73
2022/11/30 04:29:25;;;;;;;0.00;0.00;;;;;;;16.46;61.36;102508.34;2087618;28;20528;-73
2022/11/30 04:30:27;;;;;;;0.00;0.00;;;;;;;16.46;61.50;102510.28;2071373;28;20078;-73
2022/11/30 04:31:29;;;;;;;0.00;0.00;;;;;;;16.44;61.49;102511.41;2076619;28;20120;-73
2022/11/30 04:32:32;;;;;;;0.00;0.00;;;;;;;16.45;61.42;102506.75;2095749;28;20103;-73
2022/11/30 04:33:35;;;;;;;0.00;0.00;;;;;;;16.45;61.40;102512.19;2095945;28;20514;-73
2022/11/30 04:34:38;;;;;;;0.00;0.00;;;;;;;16.44;61.75;102505.13;2087722;28;20048;-73
2022/11/30 04:35:42;;;;;;;0.00;0.00;;;;;;;16.46;61.49;102510.28;2087190;28;20053;-73
2022/11/30 04:36:45;;;;;;;0.00;0.00;;;;;;;16.44;61.46;102511.41;2084998;28;20056;-73
2022/11/30 04:37:46;;;;;;;0.00;0.00;;;;;;;16.46;61.50;102515.72;2086377;28;20052;-73
2022/11/30 04:38:49;;;;;;;0.00;0.00;;;;;;;16.45;61.50;102514.94;2080157;28;20053;-71
2022/11/30 04:39:51;;;;;;;0.00;0.00;;;;;;;16.44;61.34;102519.56;2081324;28;20676;-71
2022/11/30 04:40:54;;;;;;;0.00;0.00;;;;;;;16.44;61.59;102519.56;2096042;28;20064;-71
2022/11/30 04:41:56;;;;;;;0.00;0.00;;;;;;;16.43;61.56;102517.16;2085091;28;20057;-72
2022/11/30 04:42:59;;;;;;;0.00;0.00;;;;;;;16.44;61.72;102521.50;2086083;28;20060;-72
2022/11/30 04:44:01;;;;;;;0.00;0.00;;;;;;;16.44;61.65;102510.59;2095176;28;20076;-72
2022/11/30 04:45:04;;;;;;;0.00;0.00;;;;;;;16.43;61.43;102517.97;2087204;28;20049;-72
2022/11/30 04:46:06;;;;;;;0.00;0.00;;;;;;;16.43;61.34;102520.69;2085933;28;20539;-72
2022/11/30 04:47:08;;;;;;;0.00;0.00;;;;;;;16.43;61.18;102515.25;2082437;28;20111;-72
2022/11/30 04:48:11;;;;;;;0.00;0.00;;;;;;;16.44;61.45;102521.50;2086651;28;20057;-72
2022/11/30 04:49:15;;;;;;;0.00;0.00;;;;;;;16.44;61.53;102519.56;2096502;28;20090;-72
2022/11/30 04:50:17;;;;;;;0.00;0.00;;;;;;;16.44;61.40;102521.50;2085085;28;20052;-72
2022/11/30 04:51:19;;;;;;;0.00;0.00;;;;;;;16.43;61.51;102517.16;2079077;28;20057;-72
2022/11/30 04:52:21;;;;;;;0.00;0.00;;;;;;;16.43;61.50;102520.69;2071788;28;20525;-72
2022/11/30 04:53:24;;;;;;;0.00;0.00;;;;;;;16.43;61.49;102519.88;2072053;28;20054;-72
2022/11/30 04:54:26;;;;;;;0.00;0.00;;;;;;;16.44;61.48;102524.22;2089411;28;20747;-72
2022/11/30 04:55:28;;;;;;;0.00;0.00;;;;;;;16.42;61.33;102521.84;2095163;28;20047;-72
2022/11/30 04:56:30;;;;;;;0.00;0.00;;;;;;;16.43;61.41;102520.69;2095196;28;20060;-72
2022/11/30 04:57:33;;;;;;;0.00;0.00;;;;;;;16.43;61.30;102526.16;2095821;28;20527;-72
2022/11/30 04:58:35;;;;;;;0.00;0.00;;;;;;;16.42;61.35;102527.28;2096026;28;20078;-71